Airfield :
LOGIN :

Register | Disclaimer

   EN    FR    IT 

 










Legend :    VFR   Marginal VFR   IFR   Intensive IFR   Very Intensive IFR
Visi :
Ceiling :
>= 8 km
>= 3000ft
5 to 8 km
1000 to 3000 ft
1500m to 5 km
500 to 1000 ft
800 to 1500m
200 to 500 ft
< 800m
< 200 ft
Symbols :   Thunderstorms  Fog  Heavy snow  Heavy precipitations  Wind > 20 kt
SIGMETs :     Misc.  Thunderstorms  Icing  Turbulence  Mountain Waves  Volcanic Ashes







- Airport Elevation : 479 ft
- IATA code : DOL
- Download approach charts


LFRG - Deauville

CURRENT METAR :
  • 210730Z AUTO 15001KT 5000 BR NSC 08/08 Q1029 NOSIG

EXPIRED METARs :
  • 210700Z AUTO 00000KT 2400 BR NSC 07/07 Q1028 BECMG 9999 NSW
  • 210630Z AUTO 13001KT 4900 BR NSC 07/06 Q1028 BECMG 9999 NSW
  • 210600Z AUTO VRB02KT 6000 NSC 07/07 Q1028 TEMPO 0500 FG
  • 210530Z AUTO VRB01KT 7000 NSC 07/07 Q1028 TEMPO 0500 FG
  • 210500Z AUTO 13001KT 7000 NSC 07/07 Q1028

TAF TAF LFRG
Valid from the 21 at 06:00 until the 21 at 15:00 UTC


210500Z 2106/2115 VRB03KT 5000 BR NSC
PROB40
TEMPO 2106/2107 0500 FG
BECMG 2107/2109 CAVOK
ATIS : +33 2 31 65 65 36
No reported NOTAMs for that airfield.



MET'MAP, your aeronautical weather chart ! - Copyright ORBIFLY December 2007 - Disclaimer

ORBIFLY MET'MAP TEAM :

Programming & Development : Alexandra Zaïnal
Concept & Development : Baudouin d'Aumeries
Co-Development & Prog : Marc-Olivier Méhu
Technical & hardware support : Manuel Goepfert

Contact : metmap@orbifly.com




SOURCES & CREDITS :

   NOAA